createdAt,value
2019-05-18T00:02:52.113Z,99637.79
2019-05-18T00:05:54.191Z,99640.79
2019-05-18T00:08:56.150Z,99639.09
2019-05-18T00:11:58.039Z,99647.00
2019-05-18T00:15:02.153Z,99654.80
2019-05-18T00:18:04.074Z,99653.46
2019-05-18T00:21:06.011Z,99646.22
2019-05-18T00:24:07.937Z,99642.09
2019-05-18T00:27:09.870Z,99636.47
2019-05-18T00:30:12.267Z,99636.42
2019-05-18T00:33:14.179Z,99631.73
2019-05-18T00:36:16.148Z,99628.93
2019-05-18T00:39:18.051Z,99621.31
2019-05-18T00:42:19.965Z,99625.04
2019-05-18T00:45:21.900Z,99620.05
2019-05-18T00:48:23.863Z,99627.06
2019-05-18T00:51:25.830Z,99627.27
2019-05-18T00:54:31.072Z,99631.19
2019-05-18T00:57:33.034Z,99630.71
2019-05-18T01:00:35.011Z,99629.27
2019-05-18T01:03:36.951Z,99634.20
2019-05-18T01:06:38.870Z,99639.49
2019-05-18T01:09:40.823Z,99642.59
2019-05-18T01:12:42.787Z,99640.38
2019-05-18T01:15:44.706Z,99634.34
2019-05-18T01:18:46.604Z,99632.44
2019-05-18T01:21:48.560Z,99636.60
2019-05-18T01:24:50.580Z,99629.91
2019-05-18T01:27:52.599Z,99623.91
2019-05-18T01:30:55.131Z,99628.17
2019-05-18T01:33:57.078Z,99624.00
2019-05-18T01:36:59.041Z,99630.10
2019-05-18T01:40:00.945Z,99631.91
2019-05-18T01:43:02.858Z,99631.74
2019-05-18T01:46:04.932Z,99641.56
2019-05-18T01:49:06.985Z,99647.34
2019-05-18T01:52:08.933Z,99658.31
2019-05-18T01:55:11.005Z,99654.03
2019-05-18T01:58:13.006Z,99653.52
2019-05-18T02:01:14.877Z,99649.38
2019-05-18T02:04:16.877Z,99656.55
2019-05-18T02:07:18.866Z,99658.48
2019-05-18T02:10:20.871Z,99655.66
2019-05-18T02:13:22.794Z,99649.86
2019-05-18T02:16:24.786Z,99647.31
2019-05-18T02:19:26.698Z,99637.13
2019-05-18T02:22:28.622Z,99630.28
2019-05-18T02:25:30.543Z,99629.72
2019-05-18T02:28:32.470Z,99626.58
2019-05-18T02:31:34.389Z,99626.72
2019-05-18T02:34:36.494Z,99632.12
2019-05-18T02:37:38.511Z,99633.16
2019-05-18T02:40:40.431Z,99633.20
2019-05-18T02:43:42.361Z,99632.29
2019-05-18T02:46:44.345Z,99622.19
2019-05-18T02:49:47.433Z,99619.45
2019-05-18T02:52:49.350Z,99616.50
2019-05-18T02:55:51.284Z,99616.38
2019-05-18T02:58:53.400Z,99614.08
2019-05-18T03:01:56.559Z,99617.66
2019-05-18T03:04:58.671Z,99621.59
2019-05-18T03:08:00.835Z,99622.63
2019-05-18T03:11:02.748Z,99621.78
2019-05-18T03:14:04.715Z,99617.61
2019-05-18T03:17:06.623Z,99613.15
2019-05-18T03:20:09.034Z,99619.27
2019-05-18T03:23:10.932Z,99621.14
2019-05-18T03:26:12.954Z,99619.40
2019-05-18T03:29:16.028Z,99625.96
2019-05-18T03:32:18.098Z,99625.53
2019-05-18T03:35:20.184Z,99620.70
2019-05-18T03:38:22.226Z,99612.02
2019-05-18T03:41:24.188Z,99619.06
2019-05-18T03:44:26.148Z,99602.23
2019-05-18T03:47:28.072Z,99594.86
2019-05-18T03:50:30.180Z,99595.67
2019-05-18T03:53:32.145Z,99599.55
2019-05-18T03:56:34.039Z,99598.48
2019-05-18T03:59:35.949Z,99599.32
2019-05-18T04:02:37.917Z,99599.17
2019-05-18T04:05:39.831Z,99598.53
2019-05-18T04:08:41.760Z,99597.89
2019-05-18T04:11:43.628Z,99595.56
2019-05-18T04:14:45.590Z,99592.79
2019-05-18T04:17:47.491Z,99600.36
2019-05-18T04:20:49.487Z,99596.06
2019-05-18T04:23:51.459Z,99589.63
2019-05-18T04:26:54.596Z,99597.36
2019-05-18T04:29:56.515Z,99594.82
2019-05-18T04:32:59.728Z,99602.45
2019-05-18T04:36:01.649Z,99602.23
2019-05-18T04:39:05.207Z,99607.77
2019-05-18T04:42:07.238Z,99608.33
2019-05-18T04:45:09.107Z,99610.77
2019-05-18T04:48:11.072Z,99603.86
2019-05-18T04:51:13.125Z,99607.50
2019-05-18T04:54:15.074Z,99603.23
2019-05-18T04:57:16.991Z,99600.42
2019-05-18T05:00:19.132Z,99601.08
2019-05-18T05:03:21.064Z,99599.23
2019-05-18T05:06:23.001Z,99587.77
2019-05-18T05:09:24.983Z,99596.63
2019-05-18T05:12:26.938Z,99600.22
2019-05-18T05:15:28.880Z,99608.60
2019-05-18T05:18:30.765Z,99605.14
2019-05-18T05:21:32.753Z,99609.16
2019-05-18T05:24:34.788Z,99603.83
2019-05-18T05:27:36.873Z,99607.27
2019-05-18T05:30:38.953Z,99594.36
2019-05-18T05:33:40.969Z,99597.13
2019-05-18T05:36:42.944Z,99602.95
2019-05-18T05:39:44.963Z,99599.30
2019-05-18T05:42:46.943Z,99599.72
2019-05-18T05:45:48.906Z,99603.72
2019-05-18T05:48:50.826Z,99605.52
2019-05-18T05:51:52.933Z,99608.72
2019-05-18T05:54:54.854Z,99611.52
2019-05-18T05:57:56.860Z,99601.82
2019-05-18T06:00:58.883Z,99600.88
2019-05-18T06:04:00.899Z,99599.20
2019-05-18T06:07:02.827Z,99602.69
2019-05-18T06:10:05.507Z,99597.53
2019-05-18T06:13:07.475Z,99587.19
2019-05-18T06:16:09.444Z,99593.60
2019-05-18T06:19:11.436Z,99594.81
2019-05-18T06:22:13.407Z,99597.94
2019-05-18T06:25:15.469Z,99597.11
2019-05-18T06:28:17.457Z,99594.52
2019-05-18T06:31:22.821Z,99596.20
2019-05-18T06:34:23.359Z,99597.50
2019-05-18T06:37:25.302Z,99604.08
2019-05-18T06:40:27.207Z,99605.64
2019-05-18T06:43:29.281Z,99608.75
2019-05-18T06:46:31.280Z,99601.78
2019-05-18T06:49:33.248Z,99606.72
2019-05-18T06:52:35.270Z,99606.82
2019-05-18T06:55:38.155Z,99607.69
2019-05-18T06:58:40.592Z,99602.95
2019-05-18T07:01:43.078Z,99606.16
2019-05-18T07:04:45.021Z,99609.19
2019-05-18T07:07:46.965Z,99604.58
2019-05-18T07:10:48.885Z,99595.65
2019-05-18T07:13:50.875Z,99597.25
2019-05-18T07:16:52.840Z,99600.11
2019-05-18T07:19:54.826Z,99605.86
2019-05-18T07:22:56.828Z,99606.86
2019-05-18T07:25:58.761Z,99603.17
2019-05-18T07:29:00.746Z,99614.05
2019-05-18T07:32:02.669Z,99605.22
2019-05-18T07:35:06.085Z,99604.86
2019-05-18T07:38:07.952Z,99600.97
2019-05-18T07:41:09.945Z,99592.15
2019-05-18T07:44:11.875Z,99592.83
2019-05-18T07:47:13.873Z,99593.02
2019-05-18T07:50:17.422Z,99593.94
2019-05-18T07:53:19.536Z,99588.30
2019-05-18T07:56:21.495Z,99580.73
2019-05-18T07:59:23.598Z,99587.55
2019-05-18T08:02:25.746Z,99587.30
2019-05-18T08:05:27.761Z,99583.20
2019-05-18T08:08:29.729Z,99583.72
2019-05-18T08:11:31.723Z,99585.56
2019-05-18T08:14:33.690Z,99591.19
2019-05-18T08:17:35.670Z,99588.08
2019-05-18T08:20:37.624Z,99592.42
2019-05-18T08:23:39.718Z,99598.63
2019-05-18T08:26:41.683Z,99598.41
2019-05-18T08:29:43.667Z,99597.57
2019-05-18T08:32:45.660Z,99585.85
2019-05-18T08:35:47.687Z,99583.34
2019-05-18T08:38:49.650Z,99577.79
2019-05-18T08:41:51.667Z,99584.80
2019-05-18T08:44:53.563Z,99583.13
2019-05-18T08:47:55.563Z,99577.67
2019-05-18T08:50:57.530Z,99583.95
2019-05-18T08:54:01.339Z,99576.18
2019-05-18T08:57:03.199Z,99577.00
2019-05-18T09:00:05.887Z,99574.94
2019-05-18T09:03:07.827Z,99567.95
2019-05-18T09:06:09.815Z,99571.50
2019-05-18T09:09:11.730Z,99570.44
2019-05-18T09:12:13.659Z,99574.51
2019-05-18T09:15:15.747Z,99569.81
2019-05-18T09:18:17.716Z,99567.98
2019-05-18T09:21:19.707Z,99561.91
2019-05-18T09:24:21.611Z,99559.77
2019-05-18T09:27:23.627Z,99555.31
2019-05-18T09:30:25.583Z,99562.05
2019-05-18T09:33:27.544Z,99553.41
2019-05-18T09:36:29.474Z,99548.39
2019-05-18T09:39:31.506Z,99545.41
2019-05-18T09:42:33.511Z,99543.07
2019-05-18T09:45:35.533Z,99543.58
2019-05-18T09:48:37.516Z,99537.54
2019-05-18T09:51:39.536Z,99540.17
2019-05-18T09:54:41.608Z,99533.59
2019-05-18T09:57:43.509Z,99542.40
2019-05-18T10:00:45.553Z,99538.36
2019-05-18T10:03:47.509Z,99525.37
2019-05-18T10:06:49.521Z,99521.39
2019-05-18T10:09:51.490Z,99527.35
2019-05-18T10:12:53.406Z,99523.64
2019-05-18T10:15:55.413Z,99514.80
2019-05-18T10:18:57.443Z,99519.16
2019-05-18T10:21:59.380Z,99518.39
2019-05-18T10:25:01.325Z,99516.75
2019-05-18T10:28:03.265Z,99510.88
2019-05-18T10:31:05.223Z,99509.42
2019-05-18T10:34:07.174Z,99503.41
2019-05-18T10:37:09.093Z,99503.82
2019-05-18T10:40:11.276Z,99506.41
2019-05-18T10:43:13.235Z,99494.77
2019-05-18T10:46:15.811Z,99493.48
2019-05-18T10:49:17.694Z,99496.50
2019-05-18T10:52:19.648Z,99501.12
2019-05-18T10:55:21.700Z,99488.84
2019-05-18T10:58:23.636Z,99484.25
2019-05-18T11:01:25.602Z,99479.36
2019-05-18T11:04:27.623Z,99480.46
2019-05-18T11:07:29.597Z,99473.53
2019-05-18T11:10:31.582Z,99473.64
2019-05-18T11:13:33.615Z,99469.03
2019-05-18T11:16:35.586Z,99470.75
2019-05-18T11:19:38.719Z,99457.11
2019-05-18T11:22:40.780Z,99464.52
2019-05-18T11:25:42.750Z,99465.13
2019-05-18T11:28:44.784Z,99469.92
2019-05-18T11:31:46.817Z,99459.67
2019-05-18T11:34:48.755Z,99463.80
2019-05-18T11:37:50.771Z,99463.22
2019-05-18T11:40:52.729Z,99465.28
2019-05-18T11:43:54.628Z,99459.19
2019-05-18T11:46:56.672Z,99459.08
2019-05-18T11:49:58.790Z,99460.44
2019-05-18T11:53:00.782Z,99459.91
2019-05-18T11:56:02.834Z,99460.75
2019-05-18T11:59:04.781Z,99459.08
2019-05-18T12:02:06.839Z,99453.55
2019-05-18T12:05:08.812Z,99450.59
2019-05-18T12:08:11.822Z,99457.48
2019-05-18T12:11:13.786Z,99457.72
2019-05-18T12:14:15.787Z,99453.31
2019-05-18T12:17:17.717Z,99457.95
2019-05-18T12:20:19.671Z,99454.27
2019-05-18T12:23:21.585Z,99453.41
2019-05-18T12:26:23.623Z,99455.59
2019-05-18T12:29:25.587Z,99463.80
2019-05-18T12:32:27.552Z,99457.28
2019-05-18T12:35:29.464Z,99456.52
2019-05-18T12:38:31.462Z,99457.31
2019-05-18T12:41:34.550Z,99453.16
2019-05-18T12:44:36.507Z,99448.70
2019-05-18T12:47:38.445Z,99445.47
2019-05-18T12:50:40.487Z,99452.67
2019-05-18T12:53:42.476Z,99442.50
2019-05-18T12:56:44.588Z,99443.25
2019-05-18T12:59:46.477Z,99439.55
2019-05-18T13:02:48.540Z,99437.06
2019-05-18T13:05:50.471Z,99426.80
2019-05-18T13:08:52.470Z,99440.80
2019-05-18T13:11:54.382Z,99436.59
2019-05-18T13:14:56.449Z,99434.99
2019-05-18T13:17:58.364Z,99427.83
2019-05-18T13:21:00.335Z,99422.28
2019-05-18T13:24:02.260Z,99427.89
2019-05-18T13:27:04.299Z,99411.02
2019-05-18T13:30:08.808Z,99410.44
2019-05-18T13:33:10.946Z,99401.48
2019-05-18T13:36:13.113Z,99405.11
2019-05-18T13:39:15.061Z,99400.41
2019-05-18T13:42:17.143Z,99395.83
2019-05-18T13:45:19.157Z,99398.77
2019-05-18T13:48:21.136Z,99394.17
2019-05-18T13:51:23.272Z,99397.64
2019-05-18T13:54:25.265Z,99396.30
2019-05-18T13:57:27.271Z,99396.17
2019-05-18T14:00:29.223Z,99400.68
2019-05-18T14:03:31.201Z,99402.92
2019-05-18T14:06:33.227Z,99394.34
2019-05-18T14:09:36.522Z,99395.36
2019-05-18T14:12:38.485Z,99396.80
2019-05-18T14:15:40.511Z,99393.80
2019-05-18T14:18:42.446Z,99399.25
2019-05-18T14:21:44.427Z,99392.88
2019-05-18T14:24:46.489Z,99400.58
2019-05-18T14:27:48.614Z,99384.02
2019-05-18T14:30:50.553Z,99392.59
2019-05-18T14:33:52.551Z,99391.33
2019-05-18T14:36:54.649Z,99382.34
2019-05-18T14:39:56.632Z,99383.29
2019-05-18T14:42:58.621Z,99383.69
2019-05-18T14:46:00.513Z,99381.66
2019-05-18T14:49:02.618Z,99372.78
2019-05-18T14:52:04.699Z,99374.80
2019-05-18T14:55:06.874Z,99366.88
2019-05-18T14:58:08.867Z,99364.86
2019-05-18T15:01:10.845Z,99364.86
2019-05-18T15:04:12.736Z,99364.86
2019-05-18T15:07:14.858Z,99356.91
2019-05-18T15:10:16.950Z,99364.05
2019-05-18T15:13:19.463Z,99351.19
2019-05-18T15:16:21.432Z,99343.14
2019-05-18T15:19:24.221Z,99351.11
2019-05-18T15:22:26.193Z,99347.13
2019-05-18T15:25:28.235Z,99346.55
2019-05-18T15:28:30.213Z,99346.63
2019-05-18T15:31:32.341Z,99342.77
2019-05-18T15:34:34.320Z,99345.84
2019-05-18T15:37:37.722Z,99348.50
2019-05-18T15:40:39.624Z,99345.73
2019-05-18T15:43:41.668Z,99346.64
2019-05-18T15:46:43.625Z,99339.19
2019-05-18T15:49:45.627Z,99337.78
2019-05-18T15:52:47.576Z,99337.77
2019-05-18T15:55:49.507Z,99340.23
2019-05-18T15:58:51.563Z,99332.78
2019-05-18T16:01:53.561Z,99335.86
2019-05-18T16:04:55.509Z,99336.48
2019-05-18T16:07:57.797Z,99333.56
2019-05-18T16:10:59.739Z,99332.77
2019-05-18T16:14:01.686Z,99334.05
2019-05-18T16:17:03.589Z,99342.29
2019-05-18T16:20:06.445Z,99335.60
2019-05-18T16:23:08.392Z,99330.67
2019-05-18T16:26:21.093Z,99329.73
2019-05-18T16:29:14.293Z,99331.88
2019-05-18T16:32:16.253Z,99335.66
2019-05-18T16:35:18.279Z,99340.86
2019-05-18T16:38:20.176Z,99342.12
2019-05-18T16:41:22.158Z,99342.67
2019-05-18T16:44:24.069Z,99345.70
2019-05-18T16:47:26.068Z,99341.98
2019-05-18T16:50:28.086Z,99337.42
2019-05-18T16:53:29.981Z,99341.80
2019-05-18T16:56:35.199Z,99339.29
2019-05-18T16:59:35.918Z,99340.48
2019-05-18T17:02:37.981Z,99339.78
2019-05-18T17:05:41.220Z,99342.67
2019-05-18T17:08:43.201Z,99347.45
2019-05-18T17:11:48.028Z,99352.63
2019-05-18T17:14:49.096Z,99349.41
2019-05-18T17:17:51.249Z,99343.34
2019-05-18T17:20:54.519Z,99337.05
2019-05-18T17:23:56.631Z,99343.77
2019-05-18T17:26:58.717Z,99339.36
2019-05-18T17:30:00.648Z,99336.09
2019-05-18T17:33:02.627Z,99339.83
2019-05-18T17:36:04.617Z,99336.77
2019-05-18T17:39:06.621Z,99330.28
2019-05-18T17:42:08.565Z,99330.72
2019-05-18T17:45:11.301Z,99334.41
2019-05-18T17:48:13.270Z,99336.45
2019-05-18T17:51:15.226Z,99342.14
2019-05-18T17:54:17.235Z,99335.30
2019-05-18T17:57:19.185Z,99329.59
2019-05-18T18:00:22.436Z,99328.30
2019-05-18T18:03:24.392Z,99337.45
2019-05-18T18:06:26.410Z,99331.98
2019-05-18T18:09:28.352Z,99333.80
2019-05-18T18:12:30.271Z,99339.15
2019-05-18T18:15:34.067Z,99338.81
2019-05-18T18:18:36.007Z,99334.92
2019-05-18T18:21:38.122Z,99334.92
2019-05-18T18:24:40.082Z,99336.63
2019-05-18T18:27:45.173Z,99341.53
2019-05-18T18:30:47.145Z,99338.23
2019-05-18T18:33:50.938Z,99338.23
2019-05-18T18:36:52.865Z,99351.40
2019-05-18T18:39:54.875Z,99353.84
2019-05-18T18:42:58.665Z,99350.53
2019-05-18T18:46:00.620Z,99349.51
2019-05-18T18:49:02.673Z,99360.91
2019-05-18T18:52:04.640Z,99354.35
2019-05-18T18:55:07.635Z,99360.81
2019-05-18T18:58:09.544Z,99370.66
2019-05-18T19:01:13.923Z,99372.27
2019-05-18T19:04:16.963Z,99375.58
2019-05-18T19:07:19.896Z,99374.81
2019-05-18T19:10:21.899Z,99379.06
2019-05-18T19:13:23.839Z,99385.16
2019-05-18T19:16:27.498Z,99383.25
2019-05-18T19:19:29.895Z,99381.86
2019-05-18T19:22:34.867Z,99377.67
2019-05-18T19:25:36.833Z,99378.86
2019-05-18T19:28:38.814Z,99376.66
2019-05-18T19:31:41.992Z,99372.02
2019-05-18T19:34:45.303Z,99368.50
2019-05-18T19:37:49.066Z,99364.83
2019-05-18T19:40:51.123Z,99356.25
2019-05-18T19:43:54.154Z,99355.66
2019-05-18T19:46:56.438Z,99354.86
2019-05-18T19:49:58.382Z,99355.28
2019-05-18T19:53:02.363Z,99358.80
2019-05-18T19:56:04.471Z,99353.14
2019-05-18T19:59:06.510Z,99347.81
2019-05-18T20:02:08.545Z,99342.44
2019-05-18T20:05:13.811Z,99343.36
2019-05-18T20:08:15.722Z,99336.38
2019-05-18T20:11:17.706Z,99330.46
2019-05-18T20:14:19.606Z,99337.03
2019-05-18T20:17:24.163Z,99339.67
2019-05-18T20:20:26.161Z,99350.28
2019-05-18T20:23:28.694Z,99349.30
2019-05-18T20:26:31.177Z,99345.89
2019-05-18T20:29:34.548Z,99350.34
2019-05-18T20:32:36.880Z,99354.57
2019-05-18T20:35:38.993Z,99356.45
2019-05-18T20:38:42.921Z,99350.42
2019-05-18T20:41:44.980Z,99344.37
2019-05-18T20:44:46.936Z,99351.23
2019-05-18T20:47:48.957Z,99356.35
2019-05-18T20:50:50.873Z,99353.59
2019-05-18T20:53:53.387Z,99353.72
2019-05-18T20:56:57.838Z,99348.14
2019-05-18T20:59:59.870Z,99348.79
2019-05-18T21:03:02.135Z,99354.83
2019-05-18T21:06:04.226Z,99346.59
2019-05-18T21:09:06.191Z,99358.09
2019-05-18T21:12:08.232Z,99359.29
2019-05-18T21:15:11.573Z,99360.67
2019-05-18T21:18:13.753Z,99361.02
2019-05-18T21:21:15.665Z,99369.03
2019-05-18T21:24:17.578Z,99374.11
2019-05-18T21:27:19.674Z,99380.88
2019-05-18T21:30:21.876Z,99383.48
2019-05-18T21:33:23.830Z,99370.37
2019-05-18T21:36:25.803Z,99375.81
2019-05-18T21:39:27.827Z,99369.09
2019-05-18T21:42:29.745Z,99368.95
2019-05-18T21:45:31.636Z,99360.03
2019-05-18T21:48:33.619Z,99357.95
2019-05-18T21:51:35.978Z,99356.45
2019-05-18T21:54:37.914Z,99353.31
2019-05-18T21:57:39.904Z,99347.77
2019-05-18T22:00:46.102Z,99349.53
2019-05-18T22:03:48.430Z,99341.42
2019-05-18T22:06:50.354Z,99351.72
2019-05-18T22:09:53.775Z,99341.78
2019-05-18T22:12:56.105Z,99342.78
2019-05-18T22:15:58.110Z,99340.09
2019-05-18T22:19:00.143Z,99344.23
2019-05-18T22:22:02.132Z,99347.77
2019-05-18T22:25:04.084Z,99347.49
2019-05-18T22:28:06.098Z,99348.70
2019-05-18T22:31:08.061Z,99351.80
2019-05-18T22:34:10.031Z,99345.89
2019-05-18T22:37:11.943Z,99339.92
2019-05-18T22:40:13.846Z,99334.05
2019-05-18T22:43:15.828Z,99331.77
2019-05-18T22:46:17.725Z,99329.81
2019-05-18T22:49:19.707Z,99337.36
2019-05-18T22:52:22.272Z,99330.65
2019-05-18T22:55:24.146Z,99333.58
2019-05-18T22:58:26.278Z,99322.03
2019-05-18T23:01:28.261Z,99316.52
2019-05-18T23:04:30.715Z,99324.48
2019-05-18T23:07:32.734Z,99320.39
2019-05-18T23:10:34.748Z,99328.81
2019-05-18T23:13:36.708Z,99318.69
2019-05-18T23:16:38.657Z,99324.00
2019-05-18T23:19:40.605Z,99310.24
2019-05-18T23:22:42.552Z,99313.05
2019-05-18T23:25:44.486Z,99310.40
2019-05-18T23:28:46.462Z,99313.17
2019-05-18T23:31:48.499Z,99313.14
2019-05-18T23:34:50.518Z,99320.00
2019-05-18T23:37:52.555Z,99313.27
2019-05-18T23:40:54.592Z,99316.03
2019-05-18T23:43:56.581Z,99307.72
2019-05-18T23:46:58.622Z,99304.91
2019-05-18T23:50:00.554Z,99302.59
2019-05-18T23:53:02.560Z,99298.77
2019-05-18T23:56:04.462Z,99299.86
2019-05-18T23:59:06.504Z,99297.89
